createdAt,value
2019-06-15T00:00:07.324Z,24.3
2019-06-15T00:01:08.631Z,24.3
2019-06-15T00:02:10.526Z,24.1
2019-06-15T00:03:12.110Z,23.9
2019-06-15T00:04:13.480Z,23.9
2019-06-15T00:05:14.795Z,23.8
2019-06-15T00:06:16.077Z,23.9
2019-06-15T00:07:17.395Z,24
2019-06-15T00:08:18.710Z,24
2019-06-15T00:09:20.035Z,24
2019-06-15T00:10:21.366Z,24.2
2019-06-15T00:11:22.699Z,24.4
2019-06-15T00:12:24.003Z,24.5
2019-06-15T00:13:25.294Z,24.6
2019-06-15T00:14:26.655Z,24.6
2019-06-15T00:15:27.951Z,24.6
2019-06-15T00:16:29.233Z,24.6
2019-06-15T00:17:30.536Z,24.5
2019-06-15T00:18:31.863Z,24.2
2019-06-15T00:19:33.163Z,24.3
2019-06-15T00:20:34.442Z,24.3
2019-06-15T00:21:35.734Z,24.2
2019-06-15T00:22:36.992Z,24
2019-06-15T00:23:38.284Z,23.9
2019-06-15T00:24:39.699Z,24
2019-06-15T00:25:40.987Z,24.1
2019-06-15T00:26:42.260Z,24.1
2019-06-15T00:27:43.555Z,24
2019-06-15T00:28:44.854Z,23.6
2019-06-15T00:29:46.245Z,23.7
2019-06-15T00:30:47.578Z,24
2019-06-15T00:31:48.860Z,24.1
2019-06-15T00:32:50.211Z,24.2
2019-06-15T00:33:51.500Z,24.3
2019-06-15T00:34:52.827Z,24.3
2019-06-15T00:35:54.113Z,24.2
2019-06-15T00:36:55.419Z,24.2
2019-06-15T00:37:56.721Z,24.1
2019-06-15T00:39:00.515Z,24.1
2019-06-15T00:40:01.866Z,24
2019-06-15T00:41:03.149Z,23.8
2019-06-15T00:42:04.427Z,23.7
2019-06-15T00:43:05.697Z,23.4
2019-06-15T00:44:06.969Z,23.3
2019-06-15T00:45:08.287Z,23.2
2019-06-15T00:46:09.611Z,23.2
2019-06-15T00:47:10.894Z,23.1
2019-06-15T00:48:12.227Z,22.9
2019-06-15T00:49:13.523Z,22.8
2019-06-15T00:50:14.835Z,22.9
2019-06-15T00:51:16.119Z,23
2019-06-15T00:52:17.419Z,22.9
2019-06-15T00:53:18.709Z,23
2019-06-15T00:54:20.003Z,23.1
2019-06-15T00:55:21.385Z,23.1
2019-06-15T00:56:22.685Z,23.2
2019-06-15T00:57:24.027Z,23.4
2019-06-15T00:58:25.335Z,23.5
2019-06-15T00:59:26.641Z,23.6
2019-06-15T01:00:27.962Z,23.7
2019-06-15T01:01:29.249Z,23.7
2019-06-15T01:02:30.525Z,23.7
2019-06-15T01:03:31.849Z,23.7
2019-06-15T01:04:33.169Z,23.7
2019-06-15T01:05:34.474Z,23.8
2019-06-15T01:06:35.805Z,23.8
2019-06-15T01:07:37.105Z,23.6
2019-06-15T01:08:38.413Z,23.7
2019-06-15T01:09:39.714Z,23.6
2019-06-15T01:10:41.046Z,23.7
2019-06-15T01:11:42.363Z,23.6
2019-06-15T01:12:43.631Z,23.6
2019-06-15T01:13:44.913Z,23.6
2019-06-15T01:14:46.179Z,23.6
2019-06-15T01:15:47.501Z,23.6
2019-06-15T01:16:48.781Z,23.6
2019-06-15T01:17:50.053Z,23.6
2019-06-15T01:18:51.373Z,23.6
2019-06-15T01:19:52.696Z,23.6
2019-06-15T01:20:54.019Z,23.6
2019-06-15T01:21:55.299Z,23.5
2019-06-15T01:22:56.571Z,23.4
2019-06-15T01:23:57.837Z,23.2
2019-06-15T01:25:05.365Z,23.2
2019-06-15T01:26:07.259Z,23.1
2019-06-15T01:27:08.573Z,23
2019-06-15T01:28:09.851Z,23.1
2019-06-15T01:29:11.191Z,23.1
2019-06-15T01:30:12.468Z,22.9
2019-06-15T01:31:13.803Z,23
2019-06-15T01:32:15.085Z,22.9
2019-06-15T01:33:16.388Z,22.9
2019-06-15T01:34:17.718Z,22.9
2019-06-15T01:35:18.999Z,22.6
2019-06-15T01:36:20.341Z,22.6
2019-06-15T01:37:21.637Z,22.8
2019-06-15T01:38:22.930Z,23
2019-06-15T01:39:24.213Z,23
2019-06-15T01:40:25.530Z,23.2
2019-06-15T01:41:26.864Z,23.1
2019-06-15T01:42:28.147Z,23
2019-06-15T01:43:29.443Z,22.9
2019-06-15T01:44:30.725Z,22.9
2019-06-15T01:45:32.003Z,22.9
2019-06-15T01:46:33.300Z,23
2019-06-15T01:47:34.611Z,22.9
2019-06-15T01:48:35.897Z,22.9
2019-06-15T01:49:37.197Z,22.6
2019-06-15T01:50:39.027Z,22.7
2019-06-15T01:51:40.351Z,22.9
2019-06-15T01:52:41.657Z,22.8
2019-06-15T01:53:42.932Z,22.9
2019-06-15T01:54:44.215Z,22.9
2019-06-15T01:55:45.483Z,22.8
2019-06-15T01:56:46.875Z,22.8
2019-06-15T01:57:48.160Z,22.7
2019-06-15T01:58:49.431Z,22.8
2019-06-15T01:59:50.763Z,22.8
2019-06-15T02:00:52.092Z,22.8
2019-06-15T02:01:53.401Z,22.8
2019-06-15T02:02:54.673Z,22.8
2019-06-15T02:03:55.957Z,22.8
2019-06-15T02:04:57.230Z,22.7
2019-06-15T02:05:58.559Z,22.7
2019-06-15T02:07:00.049Z,22.7
2019-06-15T02:08:01.358Z,22.8
2019-06-15T02:09:02.691Z,22.8
2019-06-15T02:10:03.991Z,22.8
2019-06-15T02:11:05.250Z,22.8
2019-06-15T02:12:06.584Z,22.7
2019-06-15T02:13:07.881Z,22.8
2019-06-15T02:14:09.165Z,22.8
2019-06-15T02:15:10.441Z,22.7
2019-06-15T02:16:11.757Z,22.7
2019-06-15T02:17:13.087Z,22.6
2019-06-15T02:18:14.369Z,22.6
2019-06-15T02:19:15.700Z,22.6
2019-06-15T02:20:16.966Z,22.6
2019-06-15T02:21:18.264Z,22.5
2019-06-15T02:22:19.585Z,22.6
2019-06-15T02:23:20.913Z,22.5
2019-06-15T02:24:22.362Z,22.4
2019-06-15T02:25:35.120Z,22.6
2019-06-15T02:26:37.480Z,22.6
2019-06-15T02:27:38.822Z,22.5
2019-06-15T02:28:40.092Z,22.3
2019-06-15T02:29:41.380Z,22.2
2019-06-15T02:30:42.653Z,22.3
2019-06-15T02:31:43.947Z,22.2
2019-06-15T02:32:45.268Z,22.2
2019-06-15T02:33:46.571Z,22.4
2019-06-15T02:34:47.841Z,22.6
2019-06-15T02:35:49.105Z,22.5
2019-06-15T02:36:50.361Z,22.2
2019-06-15T02:37:51.669Z,22.3
2019-06-15T02:38:52.946Z,22.3
2019-06-15T02:39:54.238Z,22.4
2019-06-15T02:40:55.538Z,22.3
2019-06-15T02:41:56.835Z,22.1
2019-06-15T02:42:58.173Z,22.2
2019-06-15T02:43:59.459Z,22.1
2019-06-15T02:45:00.749Z,22.1
2019-06-15T02:46:02.201Z,22.1
2019-06-15T02:47:03.504Z,22.2
2019-06-15T02:48:04.817Z,22.2
2019-06-15T02:49:06.091Z,22.3
2019-06-15T02:50:07.431Z,22.2
2019-06-15T02:51:09.013Z,22.3
2019-06-15T02:52:10.305Z,22.1
2019-06-15T02:53:11.654Z,21.9
2019-06-15T02:54:12.918Z,21.9
2019-06-15T02:55:14.196Z,21.9
2019-06-15T02:56:15.469Z,21.9
2019-06-15T02:57:16.797Z,22
2019-06-15T02:58:18.094Z,22
2019-06-15T02:59:19.352Z,22
2019-06-15T03:00:20.666Z,22
2019-06-15T03:01:21.970Z,22.1
2019-06-15T03:02:23.257Z,21.9
2019-06-15T03:03:24.597Z,22
2019-06-15T03:04:25.858Z,21.9
2019-06-15T03:05:27.126Z,21.9
2019-06-15T03:06:28.423Z,21.8
2019-06-15T03:07:29.710Z,21.7
2019-06-15T03:08:31.153Z,21.9
2019-06-15T03:09:32.434Z,22
2019-06-15T03:10:33.756Z,22.1
2019-06-15T03:11:35.048Z,22
2019-06-15T03:12:36.324Z,22
2019-06-15T03:13:37.924Z,22.2
2019-06-15T03:14:39.217Z,22.2
2019-06-15T03:15:40.539Z,22.2
2019-06-15T03:16:41.823Z,21.9
2019-06-15T03:17:43.116Z,21.6
2019-06-15T03:18:44.501Z,21.5
2019-06-15T03:19:45.766Z,21.6
2019-06-15T03:20:47.005Z,21.8
2019-06-15T03:21:48.283Z,21.9
2019-06-15T03:22:49.720Z,22.1
2019-06-15T03:23:51.089Z,22.2
2019-06-15T03:24:52.417Z,22.3
2019-06-15T03:26:04.964Z,22.2
2019-06-15T03:27:07.059Z,21.9
2019-06-15T03:28:08.372Z,21.9
2019-06-15T03:29:09.662Z,21.9
2019-06-15T03:30:10.947Z,22
2019-06-15T03:31:12.245Z,21.8
2019-06-15T03:32:13.516Z,21.9
2019-06-15T03:33:14.824Z,21.9
2019-06-15T03:34:16.140Z,21.9
2019-06-15T03:35:17.439Z,22
2019-06-15T03:36:19.636Z,22
2019-06-15T03:37:21.636Z,22
2019-06-15T03:38:22.927Z,21.9
2019-06-15T03:39:24.282Z,22
2019-06-15T03:40:25.624Z,22
2019-06-15T03:41:26.949Z,22
2019-06-15T03:42:28.276Z,22
2019-06-15T03:43:29.620Z,22
2019-06-15T03:44:30.967Z,21.9
2019-06-15T03:45:32.255Z,21.9
2019-06-15T03:46:33.526Z,22
2019-06-15T03:47:34.800Z,22.1
2019-06-15T03:48:36.059Z,22.2
2019-06-15T03:49:37.382Z,22.3
2019-06-15T03:50:38.704Z,22.3
2019-06-15T03:51:40.116Z,22.3
2019-06-15T03:52:41.441Z,22.3
2019-06-15T03:53:42.737Z,22.2
2019-06-15T03:54:44.266Z,22.2
2019-06-15T03:55:45.540Z,22.1
2019-06-15T03:56:46.824Z,22.1
2019-06-15T03:57:48.109Z,22.2
2019-06-15T03:58:49.384Z,22.3
2019-06-15T03:59:50.784Z,22.2
2019-06-15T04:00:52.068Z,22.3
2019-06-15T04:01:53.328Z,22.3
2019-06-15T04:02:54.600Z,22.3
2019-06-15T04:03:55.930Z,22.3
2019-06-15T04:04:57.269Z,22.3
2019-06-15T04:05:58.545Z,22.1
2019-06-15T04:06:59.864Z,22.2
2019-06-15T04:08:01.154Z,22.1
2019-06-15T04:09:02.521Z,22.2
2019-06-15T04:10:03.828Z,22.1
2019-06-15T04:11:05.145Z,22.2
2019-06-15T04:12:06.434Z,22.2
2019-06-15T04:13:07.710Z,22.2
2019-06-15T04:14:09.018Z,22.2
2019-06-15T04:15:10.408Z,22.1
2019-06-15T04:16:11.701Z,22.3
2019-06-15T04:17:13.051Z,22.3
2019-06-15T04:18:14.362Z,22.4
2019-06-15T04:19:15.632Z,22.3
2019-06-15T04:20:16.950Z,22.1
2019-06-15T04:21:18.223Z,22.2
2019-06-15T04:22:19.490Z,22.2
2019-06-15T04:23:20.902Z,22.2
2019-06-15T04:24:22.214Z,22.4
2019-06-15T04:25:23.536Z,22.4
2019-06-15T04:26:35.509Z,22.3
2019-06-15T04:27:37.432Z,22.4
2019-06-15T04:28:38.704Z,22.5
2019-06-15T04:29:40.002Z,22.4
2019-06-15T04:30:41.376Z,22.3
2019-06-15T04:31:42.689Z,22.2
2019-06-15T04:32:44.010Z,22.3
2019-06-15T04:33:45.329Z,22.5
2019-06-15T04:34:46.646Z,22.3
2019-06-15T04:35:47.952Z,22.5
2019-06-15T04:36:49.242Z,22.5
2019-06-15T04:37:50.508Z,22.6
2019-06-15T04:38:51.808Z,22.6
2019-06-15T04:39:53.082Z,22.7
2019-06-15T04:40:54.392Z,22.8
2019-06-15T04:41:55.680Z,22.7
2019-06-15T04:42:56.991Z,22.7
2019-06-15T04:43:58.254Z,22.8
2019-06-15T04:44:59.532Z,22.7
2019-06-15T04:46:01.069Z,22.6
2019-06-15T04:47:02.334Z,22.5
2019-06-15T04:48:03.630Z,22.6
2019-06-15T04:49:04.918Z,22.7
2019-06-15T04:50:06.202Z,22.7
2019-06-15T04:51:07.514Z,22.7
2019-06-15T04:52:08.786Z,22.7
2019-06-15T04:53:10.091Z,22.7
2019-06-15T04:54:11.402Z,22.8
2019-06-15T04:55:13.372Z,22.9
2019-06-15T04:56:14.707Z,22.9
2019-06-15T04:57:15.982Z,22.9
2019-06-15T04:58:17.289Z,22.8
2019-06-15T04:59:18.602Z,22.8
2019-06-15T05:00:19.936Z,22.6
2019-06-15T05:01:21.293Z,22.8
2019-06-15T05:02:22.703Z,22.8
2019-06-15T05:03:28.031Z,22.7
2019-06-15T05:04:29.310Z,22.8
2019-06-15T05:05:30.790Z,22.9
2019-06-15T05:06:32.233Z,22.9
2019-06-15T05:07:33.528Z,23
2019-06-15T05:08:34.836Z,22.8
2019-06-15T05:09:36.130Z,22.7
2019-06-15T05:10:37.476Z,22.6
2019-06-15T05:11:38.790Z,22.4
2019-06-15T05:12:40.068Z,22.5
2019-06-15T05:13:41.352Z,22.6
2019-06-15T05:14:42.650Z,22.6
2019-06-15T05:15:43.927Z,22.6
2019-06-15T05:16:45.286Z,22.7
2019-06-15T05:17:46.594Z,22.7
2019-06-15T05:18:47.942Z,22.8
2019-06-15T05:19:49.226Z,22.8
2019-06-15T05:20:50.503Z,22.9
2019-06-15T05:21:51.846Z,22.9
2019-06-15T05:22:53.149Z,23
2019-06-15T05:23:54.465Z,23
2019-06-15T05:24:55.769Z,23
2019-06-15T05:25:57.064Z,23
2019-06-15T05:27:06.125Z,23
2019-06-15T05:28:07.944Z,22.9
2019-06-15T05:29:09.231Z,23
2019-06-15T05:30:10.506Z,22.8
2019-06-15T05:31:11.830Z,22.9
2019-06-15T05:32:13.193Z,23
2019-06-15T05:33:14.482Z,22.9
2019-06-15T05:34:15.834Z,23
2019-06-15T05:35:17.168Z,23
2019-06-15T05:36:18.509Z,23
2019-06-15T05:37:19.870Z,23
2019-06-15T05:38:21.239Z,23
2019-06-15T05:39:22.542Z,23.1
2019-06-15T05:40:23.844Z,23.1
2019-06-15T05:41:25.136Z,23.2
2019-06-15T05:42:26.646Z,23.2
2019-06-15T05:43:27.945Z,23.2
2019-06-15T05:44:29.222Z,23.2
2019-06-15T05:45:32.676Z,23.3
2019-06-15T05:46:33.951Z,23.2
2019-06-15T05:47:35.429Z,23.3
2019-06-15T05:48:36.751Z,23.2
2019-06-15T05:49:38.087Z,23.2
2019-06-15T05:50:39.377Z,23.1
2019-06-15T05:51:40.664Z,23.1
2019-06-15T05:52:41.990Z,23.1
2019-06-15T05:53:43.286Z,23
2019-06-15T05:54:44.558Z,23.1
2019-06-15T05:55:45.824Z,23
2019-06-15T05:56:47.148Z,22.9
2019-06-15T05:57:48.561Z,23.1
2019-06-15T05:58:49.874Z,23.2
2019-06-15T05:59:51.270Z,23.3
2019-06-15T06:00:52.592Z,23.3
2019-06-15T06:01:53.896Z,23.4
2019-06-15T06:02:55.242Z,23.3
2019-06-15T06:03:56.541Z,23.3
2019-06-15T06:04:57.837Z,23.5
2019-06-15T06:05:59.134Z,23.6
2019-06-15T06:07:00.429Z,23.6
2019-06-15T06:08:01.751Z,23.7
2019-06-15T06:09:03.050Z,23.9
2019-06-15T06:10:04.347Z,24
2019-06-15T06:11:05.664Z,24.1
2019-06-15T06:12:09.298Z,24.1
2019-06-15T06:13:10.674Z,24.3
2019-06-15T06:14:11.993Z,24.3
2019-06-15T06:15:13.323Z,24.5
2019-06-15T06:16:14.683Z,24.6
2019-06-15T06:17:15.984Z,24.6
2019-06-15T06:18:17.353Z,24.7
2019-06-15T06:19:18.681Z,24.7
2019-06-15T06:20:19.983Z,24.8
2019-06-15T06:21:21.290Z,24.8
2019-06-15T06:22:22.569Z,24.9
2019-06-15T06:23:23.895Z,25
2019-06-15T06:24:25.188Z,25
2019-06-15T06:25:26.509Z,25.1
2019-06-15T06:26:27.800Z,25.1
2019-06-15T06:27:36.310Z,25.2
2019-06-15T06:28:38.251Z,25.3
2019-06-15T06:29:39.567Z,25.3
2019-06-15T06:30:40.844Z,25.4
2019-06-15T06:31:42.125Z,25.4
2019-06-15T06:32:43.408Z,25.5
2019-06-15T06:33:44.746Z,25.5
2019-06-15T06:34:46.028Z,25.6
2019-06-15T06:35:47.311Z,25.7
2019-06-15T06:36:48.627Z,25.8
2019-06-15T06:37:49.926Z,25.8
2019-06-15T06:38:51.292Z,25.9
2019-06-15T06:39:52.569Z,26
2019-06-15T06:40:55.815Z,26.1
2019-06-15T06:41:57.099Z,26.1
2019-06-15T06:42:58.411Z,26.2
2019-06-15T06:43:59.744Z,26.2
2019-06-15T06:45:00.992Z,26.3
2019-06-15T06:46:02.287Z,26.4
2019-06-15T06:47:03.567Z,26.4
2019-06-15T06:48:04.862Z,26.5
2019-06-15T06:49:06.284Z,26.6
2019-06-15T06:50:07.602Z,26.6
2019-06-15T06:51:08.858Z,26.8
2019-06-15T06:52:10.139Z,26.8
2019-06-15T06:53:11.426Z,26.9
2019-06-15T06:54:12.901Z,26.9
2019-06-15T06:55:14.577Z,27
2019-06-15T06:56:15.873Z,27
2019-06-15T06:57:17.188Z,27.1
2019-06-15T06:58:18.490Z,27.2
2019-06-15T06:59:19.852Z,27.3
2019-06-15T07:00:21.141Z,27.3
2019-06-15T07:01:22.678Z,27.4
2019-06-15T07:02:25.525Z,27.4
2019-06-15T07:03:26.842Z,27.2
2019-06-15T07:04:28.176Z,27.4
2019-06-15T07:05:32.117Z,27.5
2019-06-15T07:06:33.417Z,27.5
2019-06-15T07:07:34.731Z,27.6
2019-06-15T07:08:36.059Z,27.6
2019-06-15T07:09:37.399Z,27.7
2019-06-15T07:10:38.713Z,27.8
2019-06-15T07:11:40.041Z,27.9
2019-06-15T07:12:41.309Z,27.9
2019-06-15T07:13:42.581Z,27.9
2019-06-15T07:14:43.903Z,27.9
2019-06-15T07:15:45.203Z,27.9
2019-06-15T07:16:46.479Z,28
2019-06-15T07:17:47.767Z,28
2019-06-15T07:18:49.027Z,28.1
2019-06-15T07:19:50.659Z,28.2
2019-06-15T07:20:51.955Z,28.3
2019-06-15T07:21:53.377Z,28.4
2019-06-15T07:22:54.675Z,28.4
2019-06-15T07:23:55.951Z,28.5
2019-06-15T07:24:57.281Z,28.5
2019-06-15T07:25:58.657Z,28.5
2019-06-15T07:27:00.345Z,28.6
2019-06-15T07:28:07.807Z,28.6
2019-06-15T07:29:09.673Z,28.7
2019-06-15T07:30:10.989Z,28.7
2019-06-15T07:31:12.325Z,28.8
2019-06-15T07:32:13.635Z,28.8
2019-06-15T07:33:14.976Z,28.8
2019-06-15T07:34:16.248Z,28.9
2019-06-15T07:35:17.593Z,29
2019-06-15T07:36:18.984Z,29
2019-06-15T07:37:20.552Z,29
2019-06-15T07:38:21.853Z,29.1
2019-06-15T07:39:23.203Z,29.1
2019-06-15T07:40:24.583Z,29.2
2019-06-15T07:41:25.861Z,29.1
2019-06-15T07:42:27.161Z,29.2
2019-06-15T07:43:28.475Z,29.2
2019-06-15T07:44:29.809Z,29.2
2019-06-15T07:45:31.130Z,29.3
2019-06-15T07:46:32.431Z,29.3
2019-06-15T07:47:33.725Z,29.3
2019-06-15T07:48:35.028Z,29.4
2019-06-15T07:49:36.348Z,29.4
2019-06-15T07:50:37.680Z,29.4
2019-06-15T07:51:38.960Z,29.4
2019-06-15T07:52:40.249Z,29.4
2019-06-15T07:53:41.533Z,29.5
2019-06-15T07:54:42.820Z,29.5
2019-06-15T07:55:44.245Z,29.5
2019-06-15T07:56:45.558Z,29.6
2019-06-15T07:57:46.849Z,29.6
2019-06-15T07:58:48.141Z,29.6
2019-06-15T07:59:49.475Z,29.7
2019-06-15T08:00:50.806Z,29.8
2019-06-15T08:01:52.095Z,29.8
2019-06-15T08:02:53.416Z,29.8
2019-06-15T08:03:54.802Z,29.9
2019-06-15T08:04:56.169Z,30
2019-06-15T08:05:57.486Z,30
2019-06-15T08:06:58.765Z,30
2019-06-15T08:08:00.066Z,30.1
2019-06-15T08:09:01.360Z,30.1
2019-06-15T08:10:02.651Z,30.2
2019-06-15T08:11:03.989Z,30.2
2019-06-15T08:12:05.279Z,30.2
2019-06-15T08:13:06.577Z,30.3
2019-06-15T08:14:07.862Z,30.3
2019-06-15T08:15:09.165Z,30.4
2019-06-15T08:16:10.485Z,30.4
2019-06-15T08:17:11.859Z,30.4
2019-06-15T08:18:13.173Z,30.4
2019-06-15T08:19:14.538Z,30.3
2019-06-15T08:20:15.855Z,30.2
2019-06-15T08:21:17.197Z,30.2
2019-06-15T08:22:18.485Z,30.2
2019-06-15T08:23:19.789Z,30.2
2019-06-15T08:24:21.071Z,30.1
2019-06-15T08:25:22.909Z,30
2019-06-15T08:26:25.401Z,30
2019-06-15T08:27:26.714Z,30
2019-06-15T08:28:39.788Z,29.9
2019-06-15T08:29:41.582Z,30
2019-06-15T08:30:42.955Z,29.9
2019-06-15T08:31:44.833Z,29.9
2019-06-15T08:32:46.149Z,29.9
2019-06-15T08:33:47.492Z,29.9
2019-06-15T08:34:48.843Z,30
2019-06-15T08:35:50.212Z,29.9
2019-06-15T08:36:51.659Z,29.9
2019-06-15T08:37:53.026Z,29.9
2019-06-15T08:38:54.343Z,29.9
2019-06-15T08:39:55.675Z,29.9
2019-06-15T08:40:56.984Z,29.9
2019-06-15T08:42:01.441Z,29.9
2019-06-15T08:43:02.722Z,29.9
2019-06-15T08:44:04.298Z,29.9
2019-06-15T08:45:08.368Z,29.9
2019-06-15T08:46:09.726Z,30
2019-06-15T08:47:11.107Z,30.1
2019-06-15T08:48:12.419Z,30.1
2019-06-15T08:49:13.683Z,30.1
2019-06-15T08:50:15.058Z,30.1
2019-06-15T08:51:16.369Z,30.1
2019-06-15T08:52:17.731Z,30.1
2019-06-15T08:53:19.149Z,30.1
2019-06-15T08:54:20.460Z,30.1
2019-06-15T08:55:21.762Z,30.2
2019-06-15T08:56:23.059Z,30.2
2019-06-15T08:57:24.448Z,30.2
2019-06-15T08:58:25.879Z,30.2
2019-06-15T08:59:27.182Z,30.2
2019-06-15T09:00:28.496Z,30.2
2019-06-15T09:01:29.905Z,30.2
2019-06-15T09:02:31.276Z,30.1
2019-06-15T09:03:32.557Z,30.1
2019-06-15T09:04:33.879Z,30.1
2019-06-15T09:05:35.287Z,30.1
2019-06-15T09:06:36.563Z,30.2
2019-06-15T09:07:37.971Z,30.3
2019-06-15T09:08:39.306Z,30.4
2019-06-15T09:09:40.608Z,30.4
2019-06-15T09:10:42.243Z,30.5
2019-06-15T09:11:43.542Z,30.5
2019-06-15T09:12:44.892Z,30.5
2019-06-15T09:13:46.321Z,30.5
2019-06-15T09:14:47.595Z,30.5
2019-06-15T09:15:48.980Z,30.5
2019-06-15T09:16:50.249Z,30.5
2019-06-15T09:17:51.644Z,30.4
2019-06-15T09:18:52.918Z,30.5
2019-06-15T09:19:54.212Z,30.5
2019-06-15T09:20:55.482Z,30.4
2019-06-15T09:21:56.770Z,30.4
2019-06-15T09:22:58.146Z,30.3
2019-06-15T09:23:59.478Z,30.4
2019-06-15T09:25:00.808Z,30.3
2019-06-15T09:26:02.146Z,30.4
2019-06-15T09:27:03.446Z,30.4
2019-06-15T09:28:04.776Z,30.4
2019-06-15T09:29:11.049Z,30.5
2019-06-15T09:30:12.828Z,30.4
2019-06-15T09:31:14.140Z,30.4
2019-06-15T09:32:15.484Z,30.4
2019-06-15T09:33:16.845Z,30.4
2019-06-15T09:34:19.095Z,30.4
2019-06-15T09:35:20.813Z,30.4
2019-06-15T09:36:22.296Z,30.4
2019-06-15T09:37:23.647Z,30.4
2019-06-15T09:38:25.064Z,30.4
2019-06-15T09:39:26.372Z,30.4
2019-06-15T09:40:27.657Z,30.3
2019-06-15T09:41:29.032Z,30.3
2019-06-15T09:42:30.321Z,30.4
2019-06-15T09:43:32.059Z,30.4
2019-06-15T09:44:33.917Z,30.3
2019-06-15T09:45:35.250Z,30.3
2019-06-15T09:46:36.596Z,30.3
2019-06-15T09:47:37.899Z,30.2
2019-06-15T09:48:39.262Z,30.2
2019-06-15T09:49:40.626Z,30.2
2019-06-15T09:50:41.950Z,30.2
2019-06-15T09:51:43.264Z,30.3
2019-06-15T09:52:44.562Z,30.3
2019-06-15T09:53:45.942Z,30.3
2019-06-15T09:54:47.220Z,30.3
2019-06-15T09:55:48.553Z,30.4
2019-06-15T09:56:49.895Z,30.3
2019-06-15T09:57:51.186Z,30.3
2019-06-15T09:58:52.498Z,30.3
2019-06-15T09:59:53.810Z,30.3
2019-06-15T10:00:55.158Z,30.2
2019-06-15T10:01:56.512Z,30.2
2019-06-15T10:02:57.805Z,30.2
2019-06-15T10:03:59.187Z,30.2
2019-06-15T10:05:00.857Z,30.1
2019-06-15T10:06:02.216Z,30
2019-06-15T10:07:03.493Z,30.1
2019-06-15T10:08:04.792Z,30.1
2019-06-15T10:09:06.170Z,30.1
2019-06-15T10:10:07.609Z,30
2019-06-15T10:11:08.940Z,30
2019-06-15T10:12:10.278Z,30
2019-06-15T10:13:11.578Z,29.9
2019-06-15T10:14:12.986Z,29.9
2019-06-15T10:15:14.275Z,29.9
2019-06-15T10:16:15.621Z,29.8
2019-06-15T10:17:16.952Z,29.8
2019-06-15T10:18:18.268Z,29.8
2019-06-15T10:19:19.690Z,29.8
2019-06-15T10:20:21.050Z,29.8
2019-06-15T10:21:22.396Z,29.7
2019-06-15T10:22:23.694Z,29.7
2019-06-15T10:23:25.004Z,29.7
2019-06-15T10:24:26.379Z,29.7
2019-06-15T10:25:27.667Z,29.7
2019-06-15T10:26:28.976Z,29.7
2019-06-15T10:27:30.284Z,29.7
2019-06-15T10:28:31.596Z,29.7
2019-06-15T10:29:41.448Z,29.6
2019-06-15T10:30:43.399Z,29.7
2019-06-15T10:31:44.696Z,29.7
2019-06-15T10:32:45.971Z,29.7
2019-06-15T10:33:47.248Z,29.7
2019-06-15T10:34:48.612Z,29.6
2019-06-15T10:35:49.868Z,29.7
2019-06-15T10:36:51.156Z,29.7
2019-06-15T10:37:52.486Z,29.7
2019-06-15T10:38:53.821Z,29.6
2019-06-15T10:39:55.186Z,29.7
2019-06-15T10:40:56.483Z,29.7
2019-06-15T10:41:59.431Z,29.7
2019-06-15T10:43:00.770Z,29.7
2019-06-15T10:44:02.182Z,29.7
2019-06-15T10:45:03.512Z,29.7
2019-06-15T10:46:04.794Z,29.7
2019-06-15T10:47:06.103Z,29.7
2019-06-15T10:48:07.373Z,29.7
2019-06-15T10:49:08.710Z,29.7
2019-06-15T10:50:10.027Z,29.7
2019-06-15T10:51:11.327Z,29.7
2019-06-15T10:52:12.627Z,29.7
2019-06-15T10:53:13.932Z,29.7
2019-06-15T10:54:15.223Z,29.6
2019-06-15T10:55:16.546Z,29.6
2019-06-15T10:56:18.114Z,29.6
2019-06-15T10:57:19.381Z,29.6
2019-06-15T10:58:20.663Z,29.6
2019-06-15T10:59:21.957Z,29.6
2019-06-15T11:00:23.319Z,29.6
2019-06-15T11:01:24.626Z,29.6
2019-06-15T11:02:25.900Z,29.6
2019-06-15T11:03:27.272Z,29.6
2019-06-15T11:04:28.614Z,29.7
2019-06-15T11:05:29.973Z,29.7
2019-06-15T11:06:31.380Z,29.7
2019-06-15T11:07:32.705Z,29.6
2019-06-15T11:08:33.993Z,29.6
2019-06-15T11:09:35.291Z,29.6
2019-06-15T11:10:36.682Z,29.6
2019-06-15T11:11:37.979Z,29.6
2019-06-15T11:12:46.026Z,29.6
2019-06-15T11:13:48.064Z,29.6
2019-06-15T11:14:49.366Z,29.6
2019-06-15T11:15:50.719Z,29.5
2019-06-15T11:16:52.054Z,29.5
2019-06-15T11:17:53.382Z,29.5
2019-06-15T11:18:54.682Z,29.6
2019-06-15T11:19:55.977Z,29.6
2019-06-15T11:20:58.905Z,29.6
2019-06-15T11:22:00.322Z,29.6
2019-06-15T11:23:01.614Z,29.6
2019-06-15T11:24:02.911Z,29.6
2019-06-15T11:25:05.178Z,29.6
2019-06-15T11:26:09.155Z,29.7
2019-06-15T11:27:10.497Z,29.8
2019-06-15T11:28:11.833Z,29.8
2019-06-15T11:29:13.210Z,29.8
2019-06-15T11:30:14.737Z,29.7
2019-06-15T11:31:16.357Z,29.7
2019-06-15T11:32:17.661Z,29.7
2019-06-15T11:33:18.945Z,29.7
2019-06-15T11:34:20.234Z,29.7
2019-06-15T11:35:21.524Z,29.7
2019-06-15T11:36:25.514Z,29.7
2019-06-15T11:37:26.859Z,29.6
2019-06-15T11:38:28.148Z,29.7
2019-06-15T11:39:29.463Z,29.8
2019-06-15T11:40:30.765Z,29.8
2019-06-15T11:41:32.141Z,29.7
2019-06-15T11:42:33.450Z,29.6
2019-06-15T11:43:34.737Z,29.5
2019-06-15T11:44:36.052Z,29.5
2019-06-15T11:45:37.335Z,29.5
2019-06-15T11:46:39.793Z,29.5
2019-06-15T11:47:41.080Z,29.5
2019-06-15T11:48:42.422Z,29.5
2019-06-15T11:49:43.721Z,29.5
2019-06-15T11:50:45.049Z,29.5
2019-06-15T11:51:46.410Z,29.5
2019-06-15T11:52:47.748Z,29.4
2019-06-15T11:53:49.054Z,29.4
2019-06-15T11:54:50.341Z,29.4
2019-06-15T11:55:51.646Z,29.4
2019-06-15T11:56:53.022Z,29.4
2019-06-15T11:57:54.343Z,29.4
2019-06-15T11:58:55.678Z,29.4
2019-06-15T11:59:56.971Z,29.4
2019-06-15T12:01:10.274Z,29.4
2019-06-15T12:02:19.688Z,29.4
2019-06-15T12:03:22.338Z,29.4
2019-06-15T12:04:26.484Z,29.4
2019-06-15T12:05:27.759Z,29.4
2019-06-15T12:06:29.058Z,29.4
2019-06-15T12:07:30.369Z,29.3
2019-06-15T12:08:35.076Z,29.4
2019-06-15T12:09:37.358Z,29.4
2019-06-15T12:10:38.668Z,29.4
2019-06-15T12:11:40.020Z,29.5
2019-06-15T12:12:41.453Z,29.5
2019-06-15T12:13:42.754Z,29.5
2019-06-15T12:14:44.031Z,29.5
2019-06-15T12:15:45.418Z,29.4
2019-06-15T12:16:46.777Z,29.1
2019-06-15T12:17:48.215Z,29.4
2019-06-15T12:18:49.538Z,29.4
2019-06-15T12:19:50.832Z,29.4
2019-06-15T12:20:52.138Z,29.4
2019-06-15T12:21:53.434Z,29.4
2019-06-15T12:22:54.786Z,29.4
2019-06-15T12:23:56.091Z,29.4
2019-06-15T12:24:57.429Z,29.4
2019-06-15T12:25:59.067Z,29.4
2019-06-15T12:27:00.380Z,29.4
2019-06-15T12:28:01.708Z,29.4
2019-06-15T12:29:03.082Z,29.4
2019-06-15T12:30:04.372Z,29.4
2019-06-15T12:31:05.719Z,29.4
2019-06-15T12:32:07.008Z,29.4
2019-06-15T12:33:08.342Z,29.3
2019-06-15T12:34:10.784Z,29.3
2019-06-15T12:35:12.174Z,29.3
2019-06-15T12:36:18.964Z,29.3
2019-06-15T12:37:20.743Z,29.3
2019-06-15T12:38:22.079Z,29.3
2019-06-15T12:39:25.142Z,29.3
2019-06-15T12:40:27.632Z,29.3
2019-06-15T12:41:29.001Z,29.3
2019-06-15T12:42:30.308Z,29.3
2019-06-15T12:43:31.647Z,29.3
2019-06-15T12:44:32.950Z,29.3
2019-06-15T12:45:34.254Z,29.3
2019-06-15T12:46:35.675Z,29.3
2019-06-15T12:47:36.975Z,29.4
2019-06-15T12:48:38.315Z,29.3
2019-06-15T12:49:39.605Z,29.3
2019-06-15T12:50:40.907Z,29.3
2019-06-15T12:51:42.217Z,29.3
2019-06-15T12:52:43.521Z,29.3
2019-06-15T12:53:44.843Z,29.3
2019-06-15T12:54:46.162Z,29.3
2019-06-15T12:55:47.485Z,29.3
2019-06-15T12:56:48.768Z,29.3
2019-06-15T12:57:52.859Z,29.3
2019-06-15T12:58:54.396Z,29.3
2019-06-15T12:59:55.719Z,29.3
2019-06-15T13:01:02.678Z,29.3
2019-06-15T13:02:04.733Z,29.3
2019-06-15T13:03:06.147Z,29.3
2019-06-15T13:04:07.500Z,29.3
2019-06-15T13:05:08.791Z,29.3
2019-06-15T13:06:10.122Z,29.2
2019-06-15T13:07:11.430Z,29.2
2019-06-15T13:08:12.756Z,29.2
2019-06-15T13:09:14.101Z,29.2
2019-06-15T13:10:17.967Z,29.2
2019-06-15T13:11:19.464Z,29.2
2019-06-15T13:12:20.779Z,29.2
2019-06-15T13:13:22.088Z,29.2
2019-06-15T13:14:23.531Z,29.2
2019-06-15T13:15:24.819Z,29.3
2019-06-15T13:16:38.468Z,29.3
2019-06-15T13:17:40.843Z,29.2
2019-06-15T13:18:42.179Z,29.2
2019-06-15T13:19:43.537Z,29.3
2019-06-15T13:20:44.823Z,29.3
2019-06-15T13:21:46.121Z,29.2
2019-06-15T13:22:47.426Z,29.2
2019-06-15T13:23:48.775Z,29.2
2019-06-15T13:24:50.123Z,29.1
2019-06-15T13:25:51.517Z,29.1
2019-06-15T13:26:52.863Z,29.1
2019-06-15T13:27:54.185Z,29.1
2019-06-15T13:28:55.466Z,29.1
2019-06-15T13:29:56.839Z,29.1
2019-06-15T13:30:58.178Z,29
2019-06-15T13:31:59.521Z,29
2019-06-15T13:33:02.190Z,29
2019-06-15T13:34:03.559Z,29.1
2019-06-15T13:35:04.927Z,29.1
2019-06-15T13:36:06.218Z,29
2019-06-15T13:37:07.522Z,29.1
2019-06-15T13:38:08.797Z,29
2019-06-15T13:39:10.102Z,29
2019-06-15T13:40:11.421Z,29
2019-06-15T13:41:12.801Z,29
2019-06-15T13:42:14.137Z,29
2019-06-15T13:43:15.432Z,29
2019-06-15T13:44:16.741Z,29
2019-06-15T13:45:18.150Z,29